Time;durP1;ratioP1;P1;durP2;ratioP2;P2;SDS_P1;SDS_P2;PMS_P1;PMS_P2;Temp;Humidity;BMP_temperature;BMP_pressure;BME280_temperature;BME280_humidity;BME280_pressure;Samples;Min_cycle;Max_cycle;Signal;HPM_P1;HPM_P2
2021/01/10 00:00:23;;;;;;;106.80;53.65;;;;;;;-1.54;83.14;100962.84;5106639;28;20292;-65
2021/01/10 00:02:49;;;;;;;120.80;58.72;;;;;;;-1.51;83.61;100969.69;5115805;28;20084;-66
2021/01/10 00:05:34;;;;;;;125.43;59.45;;;;;;;-1.55;83.27;100969.47;5115077;28;20049;-65
2021/01/10 00:08:00;;;;;;;124.85;63.50;;;;;;;-1.55;83.34;100972.22;5115708;28;20383;-65
2021/01/10 00:10:29;;;;;;;128.02;61.63;;;;;;;-1.54;84.02;100973.06;5116016;28;20319;-65
2021/01/10 00:13:02;;;;;;;128.40;63.72;;;;;;;-1.53;83.51;100974.69;5115473;28;20438;-66
2021/01/10 00:15:29;;;;;;;115.38;55.67;;;;;;;-1.51;84.18;100964.16;5115724;28;20031;-65
2021/01/10 00:17:54;;;;;;;115.18;52.60;;;;;;;-1.48;84.02;100963.53;5116003;28;20319;-63
2021/01/10 00:20:21;;;;;;;99.63;47.60;;;;;;;-1.43;84.25;100968.94;5115971;28;20023;-66
2021/01/10 00:22:56;;;;;;;103.82;49.33;;;;;;;-1.39;84.26;100969.94;5115127;28;20019;-65
2021/01/10 00:25:22;;;;;;;97.50;47.78;;;;;;;-1.37;84.15;100964.94;5116283;28;20292;-65
2021/01/10 00:27:48;;;;;;;108.43;50.38;;;;;;;-1.35;84.66;100968.25;5115778;28;20028;-65
2021/01/10 00:30:17;;;;;;;97.22;47.75;;;;;;;-1.33;84.49;100979.78;5115520;28;20322;-65
2021/01/10 00:32:50;;;;;;;105.47;46.78;;;;;;;-1.29;84.56;100978.84;5116151;28;20032;-66
2021/01/10 00:35:17;;;;;;;103.75;47.63;;;;;;;-1.20;84.99;100984.44;5115933;28;20031;-65
2021/01/10 00:37:52;;;;;;;97.13;47.17;;;;;;;-1.16;84.32;100982.69;5115904;27;20024;-66
2021/01/10 00:40:18;;;;;;;101.13;47.30;;;;;;;-1.16;84.72;100985.44;5116034;28;20043;-61
2021/01/10 00:42:45;;;;;;;100.50;48.08;;;;;;;-1.14;85.20;100982.38;5108511;28;20012;-60
2021/01/10 00:45:12;;;;;;;102.50;47.42;;;;;;;-1.14;84.93;100983.19;5105685;28;20460;-64
2021/01/10 00:47:37;;;;;;;102.50;47.03;;;;;;;-1.12;84.48;100996.69;5109484;28;20046;-60
2021/01/10 00:50:04;;;;;;;112.50;50.97;;;;;;;-1.13;85.16;100990.34;5118832;28;20481;-65
2021/01/10 00:52:30;;;;;;;110.95;48.80;;;;;;;-1.14;84.80;100988.72;5108528;28;20052;-66
2021/01/10 00:54:56;;;;;;;109.82;48.42;;;;;;;-1.11;84.90;100998.31;5113704;28;20051;-65
2021/01/10 00:57:21;;;;;;;112.35;48.95;;;;;;;-1.09;85.70;100996.91;5119750;28;20015;-66
2021/01/10 00:59:47;;;;;;;113.70;49.67;;;;;;;-1.06;85.17;100999.03;5119408;28;20024;-66
2021/01/10 01:02:12;;;;;;;107.43;48.95;;;;;;;-1.06;85.57;101003.75;5119735;28;20027;-66
2021/01/10 01:04:38;;;;;;;114.07;50.80;;;;;;;-1.06;85.07;101001.78;5119892;27;20088;-65
2021/01/10 01:07:03;;;;;;;106.63;48.55;;;;;;;-1.04;85.43;101001.47;5118367;28;20419;-66
2021/01/10 01:09:29;;;;;;;117.95;48.28;;;;;;;-1.02;85.79;101007.50;5119517;28;20039;-66
2021/01/10 01:11:54;;;;;;;115.45;47.80;;;;;;;-1.01;86.03;101004.44;5119361;28;20318;-64
2021/01/10 01:14:19;;;;;;;111.07;47.40;;;;;;;-1.01;85.44;101004.44;5119528;28;20016;-65
2021/01/10 01:16:45;;;;;;;108.25;45.95;;;;;;;-0.99;85.98;100999.41;5119059;28;20459;-64
2021/01/10 01:19:10;;;;;;;104.10;45.25;;;;;;;-0.98;86.24;100991.97;5119361;28;20027;-62
2021/01/10 01:21:36;;;;;;;112.55;48.90;;;;;;;-0.96;85.78;100996.03;5119445;28;20081;-62
2021/01/10 01:24:01;;;;;;;107.55;48.33;;;;;;;-0.95;86.47;100997.66;5118009;28;20147;-60
2021/01/10 01:26:27;;;;;;;112.20;48.67;;;;;;;-0.93;86.49;100997.34;5119063;28;20407;-63
2021/01/10 01:28:53;;;;;;;115.72;47.63;;;;;;;-0.90;85.89;101001.44;5119097;28;20411;-62
2021/01/10 01:31:21;;;;;;;112.03;47.70;;;;;;;-0.87;86.51;100998.88;5117173;28;20050;-61
2021/01/10 01:33:47;;;;;;;112.70;48.15;;;;;;;-0.82;86.25;101000.69;5115511;28;20051;-62
2021/01/10 01:36:23;;;;;;;116.78;47.28;;;;;;;-0.79;86.02;101000.91;5114653;28;20020;-62
2021/01/10 01:38:53;;;;;;;108.97;45.15;;;;;;;-0.75;86.63;100998.34;5117576;28;20080;-63
2021/01/10 01:41:19;;;;;;;116.95;46.53;;;;;;;-0.73;86.49;100996.88;5113863;27;20319;-66
2021/01/10 01:43:44;;;;;;;103.25;44.13;;;;;;;-0.72;86.34;100992.19;5118953;28;20027;-66
2021/01/10 01:46:16;;;;;;;113.07;45.65;;;;;;;-0.69;86.44;100994.31;5118479;28;20027;-66
2021/01/10 01:48:42;;;;;;;111.70;46.13;;;;;;;-0.71;86.29;100991.06;5119077;28;20054;-66
2021/01/10 01:51:08;;;;;;;101.60;46.15;;;;;;;-0.71;86.34;100991.88;5118897;28;20051;-65
2021/01/10 01:53:34;;;;;;;105.28;46.67;;;;;;;-0.71;86.72;100996.56;5118580;28;20034;-66
2021/01/10 01:55:59;;;;;;;97.22;43.20;;;;;;;-0.74;86.13;100998.03;5117478;28;20054;-65
2021/01/10 01:58:26;;;;;;;108.25;47.35;;;;;;;-0.70;86.80;100999.03;5118710;28;20020;-65
2021/01/10 02:00:52;;;;;;;107.82;47.50;;;;;;;-0.70;86.20;100998.22;5117749;28;20314;-65
2021/01/10 02:03:38;;;;;;;99.35;43.20;;;;;;;-0.63;85.99;100999.41;5118633;28;20095;-66
2021/01/10 02:06:15;;;;;;;88.50;38.67;;;;;;;-0.66;85.64;100988.97;5118198;28;20033;-66
2021/01/10 02:08:41;;;;;;;79.22;37.83;;;;;;;-0.72;85.41;100990.25;5118405;28;20072;-66
2021/01/10 02:11:10;;;;;;;82.55;38.60;;;;;;;-0.75;85.73;100990.06;5109364;28;20400;-66
2021/01/10 02:13:38;;;;;;;82.10;37.10;;;;;;;-0.82;85.29;100987.72;5118439;28;20015;-65
2021/01/10 02:16:05;;;;;;;83.78;36.20;;;;;;;-0.90;85.66;100988.44;5118286;28;20023;-66
2021/01/10 02:18:33;;;;;;;76.80;34.58;;;;;;;-0.90;85.39;100993.97;5117963;28;20028;-66
2021/01/10 02:21:05;;;;;;;77.63;34.63;;;;;;;-0.90;85.61;100998.66;5118078;28;20322;-66
2021/01/10 02:23:32;;;;;;;71.53;33.47;;;;;;;-0.91;85.91;100992.34;5117917;28;20482;-66
2021/01/10 02:25:59;;;;;;;75.40;33.15;;;;;;;-0.94;85.13;100993.78;5118017;28;20030;-66
2021/01/10 02:28:30;;;;;;;72.20;31.52;;;;;;;-0.90;86.03;100999.50;5118073;27;20423;-66
2021/01/10 02:30:58;;;;;;;71.45;30.83;;;;;;;-0.81;85.49;100994.06;5117994;28;20027;-65
2021/01/10 02:33:37;;;;;;;65.65;30.13;;;;;;;-0.81;85.34;101002.34;5117807;28;20051;-66
2021/01/10 02:36:08;;;;;;;74.10;31.98;;;;;;;-0.90;84.63;100999.50;5117935;28;20057;-66
2021/01/10 02:38:55;;;;;;;65.28;29.65;;;;;;;-0.91;84.67;101000.63;5117838;28;20027;-66
2021/01/10 02:41:35;;;;;;;69.05;30.33;;;;;;;-0.96;85.36;100997.97;5105046;28;20311;-65
2021/01/10 02:44:22;;;;;;;73.07;30.92;;;;;;;-1.00;85.43;101003.31;5117356;28;20023;-66
2021/01/10 02:46:52;;;;;;;61.67;27.20;;;;;;;-1.01;85.22;101009.94;5117728;28;20032;-65
2021/01/10 02:49:19;;;;;;;63.90;27.60;;;;;;;-1.02;85.09;101013.03;5117363;28;20027;-66
2021/01/10 02:51:48;;;;;;;56.85;26.42;;;;;;;-1.03;85.40;101017.72;5117526;28;20038;-66
2021/01/10 02:54:15;;;;;;;63.50;28.60;;;;;;;-1.05;85.20;101006.19;5117489;27;20066;-66
2021/01/10 02:56:48;;;;;;;60.47;26.42;;;;;;;-1.04;85.88;101005.06;5117513;28;20403;-65
2021/01/10 02:59:19;;;;;;;63.53;27.55;;;;;;;-1.00;85.72;101006.06;5117269;28;20035;-65
2021/01/10 03:01:47;;;;;;;59.92;25.60;;;;;;;-1.01;85.19;100998.09;5117471;28;20027;-66
2021/01/10 03:04:15;;;;;;;59.53;26.42;;;;;;;-1.04;85.55;100996.78;5117375;28;20432;-65
2021/01/10 03:06:42;;;;;;;58.97;25.50;;;;;;;-1.04;85.48;100993.22;5117229;28;20023;-66
2021/01/10 03:09:08;;;;;;;61.65;26.98;;;;;;;-1.04;85.34;100994.03;5117099;28;20024;-66
2021/01/10 03:11:34;;;;;;;58.28;27.98;;;;;;;-1.06;85.31;100995.47;5117034;28;20430;-66
2021/01/10 03:14:01;;;;;;;61.33;27.90;;;;;;;-1.08;85.40;100995.78;5116216;28;20023;-66
2021/01/10 03:16:26;;;;;;;62.72;27.10;;;;;;;-1.07;86.08;100996.59;5115635;28;20091;-67
2021/01/10 03:18:52;;;;;;;70.88;33.25;;;;;;;-1.08;85.44;100994.97;5108640;28;20106;-66
2021/01/10 03:21:18;;;;;;;69.50;34.97;;;;;;;-1.09;85.61;101001.59;5116535;28;20049;-66
2021/01/10 03:23:44;;;;;;;61.17;25.70;;;;;;;-1.09;85.95;101007.94;5117146;28;20407;-66
2021/01/10 03:26:09;;;;;;;92.72;42.95;;;;;;;-1.08;86.10;101004.06;5116565;28;20119;-65
2021/01/10 03:28:35;;;;;;;56.30;25.67;;;;;;;-1.02;85.56;101007.50;5107265;28;20484;-66
2021/01/10 03:31:00;;;;;;;57.65;25.15;;;;;;;-1.02;85.84;101013.84;5104622;28;20027;-66
2021/01/10 03:33:25;;;;;;;66.40;27.85;;;;;;;-1.02;85.55;101013.84;5116609;28;20097;-66
2021/01/10 03:35:51;;;;;;;58.10;23.45;;;;;;;-0.95;85.67;101018.94;5116359;28;20437;-66
2021/01/10 03:38:16;;;;;;;67.97;24.15;;;;;;;-0.86;85.69;101013.47;5115686;28;20407;-65
2021/01/10 03:40:41;;;;;;;53.83;23.88;;;;;;;-0.82;85.49;101018.09;5116818;28;20039;-66
2021/01/10 03:43:07;;;;;;;61.92;25.75;;;;;;;-0.81;85.32;101018.91;5116241;28;20024;-65
2021/01/10 03:45:32;;;;;;;62.20;25.48;;;;;;;-0.84;85.61;101019.50;5116797;28;20024;-66
2021/01/10 03:47:57;;;;;;;54.47;22.65;;;;;;;-0.86;85.68;101027.28;5116326;28;20055;-66
2021/01/10 03:50:23;;;;;;;64.25;24.02;;;;;;;-0.88;85.96;101024.00;5116343;28;20318;-65
2021/01/10 03:52:48;;;;;;;62.78;25.33;;;;;;;-0.90;85.69;101018.00;5116490;28;20051;-65
2021/01/10 03:55:13;;;;;;;66.95;25.80;;;;;;;-0.88;86.06;101024.84;5116317;28;20106;-65
2021/01/10 03:57:39;;;;;;;61.90;24.70;;;;;;;-0.86;85.86;101025.34;5115202;28;20051;-65
2021/01/10 04:00:07;;;;;;;70.30;25.52;;;;;;;-0.83;86.68;101015.63;5116208;28;20035;-64
2021/01/10 04:02:32;;;;;;;66.22;26.30;;;;;;;-0.83;86.32;101021.13;5116503;28;20102;-66
2021/01/10 04:04:58;;;;;;;71.35;27.35;;;;;;;-0.87;85.72;101020.94;5115769;28;20095;-65
2021/01/10 04:07:24;;;;;;;63.10;25.58;;;;;;;-0.86;86.29;101006.00;5116870;28;20023;-66
2021/01/10 04:09:49;;;;;;;69.47;26.88;;;;;;;-0.86;86.15;101019.00;5116290;28;20027;-65
2021/01/10 04:12:14;;;;;;;57.80;24.30;;;;;;;-0.86;86.10;101016.25;5116332;28;20093;-62
2021/01/10 04:14:40;;;;;;;75.50;26.02;;;;;;;-0.82;86.16;101017.25;5115733;28;20437;-66
2021/01/10 04:17:05;;;;;;;75.68;26.88;;;;;;;-0.80;86.88;101020.53;5116081;28;20152;-65
2021/01/10 04:19:30;;;;;;;71.25;27.15;;;;;;;-0.77;86.51;101014.41;5115960;28;20030;-66
2021/01/10 04:21:56;;;;;;;73.32;27.55;;;;;;;-0.78;86.99;101012.75;5115925;28;20027;-66
2021/01/10 04:24:21;;;;;;;70.50;26.85;;;;;;;-0.74;87.09;101008.25;5115960;28;20407;-65
2021/01/10 04:26:48;;;;;;;77.38;27.88;;;;;;;-0.73;86.45;101012.63;5115984;28;20624;-66
2021/01/10 04:29:17;;;;;;;65.43;26.23;;;;;;;-0.70;86.73;101004.53;5115648;28;20026;-64
2021/01/10 04:31:43;;;;;;;74.18;26.88;;;;;;;-0.65;86.33;101003.59;5116041;28;20020;-64
2021/01/10 04:34:08;;;;;;;71.18;26.75;;;;;;;-0.63;86.70;101015.16;5115442;28;20050;-63
2021/01/10 04:36:34;;;;;;;71.10;27.00;;;;;;;-0.64;86.63;101019.03;5115943;28;20015;-65
2021/01/10 04:38:59;;;;;;;67.45;26.08;;;;;;;-0.64;86.59;101019.03;5115639;28;20438;-66
2021/01/10 04:41:25;;;;;;;71.65;29.50;;;;;;;-0.60;86.49;101024.75;5116325;28;20020;-65
2021/01/10 04:43:52;;;;;;;69.20;28.30;;;;;;;-0.62;85.99;101030.59;5115754;28;20034;-66
2021/01/10 04:46:18;;;;;;;71.85;28.75;;;;;;;-0.64;86.30;101032.84;5115592;28;20024;-66
2021/01/10 04:48:43;;;;;;;74.80;28.52;;;;;;;-0.65;86.35;101022.94;5115709;28;20023;-66
2021/01/10 04:51:13;;;;;;;68.28;28.27;;;;;;;-0.66;86.44;101026.81;5115687;28;20027;-66
2021/01/10 04:53:42;;;;;;;67.78;26.65;;;;;;;-0.60;86.31;101024.75;5115888;28;20038;-66
2021/01/10 04:56:09;;;;;;;62.88;24.50;;;;;;;-0.50;85.62;101021.75;5115606;28;20027;-66
2021/01/10 04:58:36;;;;;;;63.05;25.35;;;;;;;-0.47;85.26;101010.09;5115603;28;20034;-66
2021/01/10 05:01:02;;;;;;;57.63;23.23;;;;;;;-0.50;85.32;101022.56;5115565;28;20027;-66
2021/01/10 05:03:30;;;;;;;57.08;25.58;;;;;;;-0.52;85.37;101010.22;5114502;28;20023;-66
2021/01/10 05:05:55;;;;;;;69.88;26.50;;;;;;;-0.51;85.39;101012.66;5115724;28;20061;-60
2021/01/10 05:08:21;;;;;;;68.57;25.88;;;;;;;-0.47;85.30;101012.84;5115321;28;20020;-66
2021/01/10 05:10:46;;;;;;;57.00;25.95;;;;;;;-0.47;85.43;101004.56;5115968;28;20109;-66
2021/01/10 05:13:12;;;;;;;62.13;25.13;;;;;;;-0.51;85.54;100996.09;5115313;28;20411;-67
2021/01/10 05:15:37;;;;;;;74.05;30.35;;;;;;;-0.53;85.06;101008.59;5115544;28;20019;-66
2021/01/10 05:18:03;;;;;;;62.53;25.23;;;;;;;-0.53;85.63;101012.16;5115116;27;20453;-67
2021/01/10 05:20:33;;;;;;;75.18;27.17;;;;;;;-0.52;85.59;101011.03;5115508;28;20028;-66
2021/01/10 05:22:59;;;;;;;66.22;27.48;;;;;;;-0.45;85.44;101008.63;5115285;28;20415;-66
2021/01/10 05:25:28;;;;;;;68.63;26.25;;;;;;;-0.45;85.09;101003.13;5115299;28;20027;-66
2021/01/10 05:27:56;;;;;;;54.13;23.48;;;;;;;-0.40;85.20;101008.50;5115438;28;20415;-67
2021/01/10 05:30:32;;;;;;;57.65;24.77;;;;;;;-0.35;84.17;101007.56;5115543;28;20035;-66
2021/01/10 05:33:06;;;;;;;68.47;26.27;;;;;;;-0.41;83.94;101012.41;5102455;28;20065;-67
2021/01/10 05:35:57;;;;;;;66.15;26.38;;;;;;;-0.47;84.50;101024.72;5115561;28;20023;-66
2021/01/10 05:38:30;;;;;;;62.92;23.65;;;;;;;-0.50;84.34;101030.88;5117009;27;20039;-66
2021/01/10 05:40:57;;;;;;;70.78;27.95;;;;;;;-0.48;85.21;101034.13;5118826;28;20049;-66
2021/01/10 05:43:24;;;;;;;71.47;29.48;;;;;;;-0.48;85.07;101028.59;5118945;28;20284;-66
2021/01/10 05:45:50;;;;;;;73.47;27.67;;;;;;;-0.51;85.09;101026.47;5118551;28;20024;-66
2021/01/10 05:48:17;;;;;;;70.00;28.00;;;;;;;-0.54;85.16;101035.38;5118825;28;20026;-65
2021/01/10 05:50:47;;;;;;;68.32;24.75;;;;;;;-0.50;85.02;101036.38;5118982;28;20047;-66
2021/01/10 05:53:23;;;;;;;67.22;25.83;;;;;;;-0.50;84.88;101047.44;5118864;28;20032;-65
2021/01/10 05:55:57;;;;;;;63.22;25.13;;;;;;;-0.49;85.00;101049.06;5118867;28;20033;-66
2021/01/10 05:58:24;;;;;;;64.97;26.27;;;;;;;-0.51;85.05;101059.63;5105173;28;20030;-66
2021/01/10 06:00:51;;;;;;;70.28;26.38;;;;;;;-0.48;84.93;101064.50;5118462;28;20023;-66
2021/01/10 06:03:19;;;;;;;67.53;25.95;;;;;;;-0.51;84.65;101059.63;5114366;28;20103;-66
2021/01/10 06:05:59;;;;;;;79.95;30.08;;;;;;;-0.48;85.04;101066.44;5101989;28;20426;-64
2021/01/10 06:08:28;;;;;;;66.00;26.95;;;;;;;-0.46;85.44;101062.25;5107855;28;20111;-66
2021/01/10 06:10:54;;;;;;;67.68;26.75;;;;;;;-0.39;85.27;101065.38;5099331;28;20316;-66
2021/01/10 06:13:20;;;;;;;66.75;26.42;;;;;;;-0.44;85.42;101059.16;5099926;28;20019;-66
2021/01/10 06:15:50;;;;;;;58.95;24.80;;;;;;;-0.47;85.11;101065.31;5098984;28;20023;-67
2021/01/10 06:18:16;;;;;;;69.68;28.63;;;;;;;-0.46;85.32;101070.53;5099973;28;20107;-66
2021/01/10 06:20:42;;;;;;;80.43;30.05;;;;;;;-0.49;85.65;101065.63;5107025;28;20111;-66
2021/01/10 06:23:08;;;;;;;74.20;30.10;;;;;;;-0.52;85.69;101077.31;5099183;28;20139;-66
2021/01/10 06:25:37;;;;;;;77.80;28.80;;;;;;;-0.50;85.44;101077.00;5102015;28;20107;-66
2021/01/10 06:28:12;;;;;;;101.65;40.38;;;;;;;-0.53;85.92;101067.38;5116876;28;20050;-61
2021/01/10 06:30:41;;;;;;;72.25;26.45;;;;;;;-0.53;85.73;101059.09;5116870;28;20527;-65
2021/01/10 06:33:16;;;;;;;72.70;27.95;;;;;;;-0.51;86.11;101056.84;5117838;28;20399;-63
2021/01/10 06:35:42;;;;;;;69.70;27.95;;;;;;;-0.48;85.80;101066.44;5117809;27;20024;-66
2021/01/10 06:38:11;;;;;;;56.42;23.05;;;;;;;-0.44;85.73;101065.50;5117880;28;20330;-67
2021/01/10 06:40:39;;;;;;;63.25;25.08;;;;;;;-0.47;85.13;101068.91;5109516;28;20022;-66
2021/01/10 06:43:06;;;;;;;57.78;22.83;;;;;;;-0.44;85.48;101062.75;5117604;28;20035;-66
2021/01/10 06:45:38;;;;;;;58.00;24.77;;;;;;;-0.41;84.72;101067.63;5117714;27;20027;-65
2021/01/10 06:48:04;;;;;;;61.75;26.02;;;;;;;-0.37;84.84;101071.41;5117580;28;20023;-66
2021/01/10 06:50:31;;;;;;;64.50;25.98;;;;;;;-0.42;84.15;101073.47;5117818;28;20084;-66
2021/01/10 06:53:05;;;;;;;80.88;29.88;;;;;;;-0.45;85.01;101074.09;5117588;27;20062;-66
2021/01/10 06:55:31;;;;;;;64.65;24.50;;;;;;;-0.38;85.15;101074.50;5117585;28;20023;-65
2021/01/10 06:57:56;;;;;;;68.25;24.38;;;;;;;-0.38;84.35;101069.78;5116073;28;20077;-66
2021/01/10 07:00:22;;;;;;;60.63;23.65;;;;;;;-0.29;84.75;101080.06;5117524;28;20407;-66
2021/01/10 07:03:08;;;;;;;60.20;22.73;;;;;;;-0.32;84.55;101071.28;5117314;28;20307;-66
2021/01/10 07:05:55;;;;;;;63.38;23.50;;;;;;;-0.32;84.49;101074.03;5117570;28;20015;-66
2021/01/10 07:08:43;;;;;;;63.25;23.17;;;;;;;-0.39;84.47;101079.19;5117029;28;20118;-67
2021/01/10 07:11:23;;;;;;;69.38;28.35;;;;;;;-0.43;84.67;101086.47;5117263;28;20076;-67
2021/01/10 07:14:12;;;;;;;67.13;25.83;;;;;;;-0.47;85.50;101079.13;5103558;28;20035;-66
2021/01/10 07:16:41;;;;;;;58.35;24.38;;;;;;;-0.46;85.40;101076.06;5116802;28;20453;-66
2021/01/10 07:19:08;;;;;;;63.63;26.17;;;;;;;-0.44;85.62;101086.78;5117440;28;20035;-66
2021/01/10 07:21:34;;;;;;;63.83;25.95;;;;;;;-0.45;85.48;101099.78;5117206;28;20028;-66
2021/01/10 07:26:44;;;;;;;45.05;18.33;;;;;;;-0.46;85.66;101091.81;5117084;28;20038;-65
2021/01/10 07:29:25;;;;;;;64.47;29.02;;;;;;;-0.44;85.80;101093.13;5116657;28;20031;-66
2021/01/10 07:31:58;;;;;;;63.65;25.77;;;;;;;-0.38;86.14;101093.81;5116030;28;20315;-67
2021/01/10 07:34:23;;;;;;;64.88;26.02;;;;;;;-0.36;85.91;101086.84;5116233;28;20052;-66
2021/01/10 07:36:54;;;;;;;61.53;25.83;;;;;;;-0.31;85.61;101097.78;5116928;28;20415;-65
2021/01/10 07:39:23;;;;;;;69.20;28.07;;;;;;;-0.25;85.19;101089.38;5115617;28;20016;-66
2021/01/10 07:41:48;;;;;;;68.85;27.30;;;;;;;-0.23;84.89;101089.88;5116324;28;20263;-66
2021/01/10 07:44:17;;;;;;;56.00;23.75;;;;;;;-0.23;84.45;101095.41;5116439;28;20027;-65
2021/01/10 07:46:54;;;;;;;61.83;23.80;;;;;;;-0.25;84.49;101084.69;5115727;28;20032;-63
2021/01/10 07:49:24;;;;;;;64.40;26.67;;;;;;;-0.23;84.90;101084.38;5116333;28;20027;-66
2021/01/10 07:51:50;;;;;;;76.72;28.63;;;;;;;-0.20;84.31;101098.38;5116730;28;20023;-66
2021/01/10 07:54:16;;;;;;;69.10;28.83;;;;;;;-0.23;84.84;101093.47;5116312;28;20023;-65
2021/01/10 07:56:41;;;;;;;70.93;27.38;;;;;;;-0.24;85.03;101082.72;5116026;28;20022;-66
2021/01/10 07:59:15;;;;;;;63.35;25.00;;;;;;;-0.26;85.57;101080.28;5116100;28;20023;-66
2021/01/10 08:01:51;;;;;;;71.63;28.52;;;;;;;-0.32;85.28;101082.34;5112152;28;20435;-66
2021/01/10 08:04:36;;;;;;;77.82;30.88;;;;;;;-0.31;85.23;101072.91;5096994;28;20357;-66
2021/01/10 08:07:03;;;;;;;79.57;31.20;;;;;;;-0.29;85.67;101080.06;5115741;27;20040;-66
2021/01/10 08:09:33;;;;;;;82.78;30.83;;;;;;;-0.27;85.99;101088.84;5101123;28;20019;-65
2021/01/10 08:12:00;;;;;;;75.65;29.23;;;;;;;-0.25;85.95;101090.22;5100633;28;20442;-66
2021/01/10 08:14:25;;;;;;;75.53;30.33;;;;;;;-0.27;85.39;101089.72;5102355;28;20042;-65
2021/01/10 08:16:51;;;;;;;78.28;29.88;;;;;;;-0.26;85.93;101083.06;5105194;28;20032;-67
2021/01/10 08:19:17;;;;;;;80.55;32.63;;;;;;;-0.23;85.93;101096.25;5099252;28;20012;-66
2021/01/10 08:21:43;;;;;;;81.80;30.92;;;;;;;-0.20;85.63;101103.88;5098784;28;20105;-68
2021/01/10 08:24:08;;;;;;;79.85;31.10;;;;;;;-0.21;85.93;101109.72;5098677;28;20028;-65
2021/01/10 08:26:42;;;;;;;86.28;34.03;;;;;;;-0.19;85.94;101101.94;5104360;28;20020;-70
2021/01/10 08:29:07;;;;;;;95.78;38.17;;;;;;;-0.17;85.44;101110.75;5100001;28;20032;-65
2021/01/10 08:31:34;;;;;;;101.38;40.13;;;;;;;-0.19;85.90;101113.81;5115823;28;20116;-66
2021/01/10 08:34:09;;;;;;;88.13;33.42;;;;;;;-0.10;86.81;101116.63;5102327;28;20056;-66
2021/01/10 08:36:36;;;;;;;86.45;33.65;;;;;;;0.03;89.65;101118.53;5115686;28;20442;-65
2021/01/10 08:39:04;;;;;;;100.90;38.67;;;;;;;0.01;89.04;101131.03;5115424;28;20047;-62
2021/01/10 08:41:37;;;;;;;111.13;43.92;;;;;;;0.01;87.19;101134.63;5114515;28;20019;-63
2021/01/10 08:44:25;;;;;;;117.25;45.13;;;;;;;-0.01;86.91;101132.16;5113733;28;20102;-63
2021/01/10 08:46:51;;;;;;;108.03;46.13;;;;;;;-0.05;86.09;101146.91;5115251;28;20193;-63
2021/01/10 08:49:25;;;;;;;95.53;35.15;;;;;;;-0.01;85.71;101142.38;5115121;28;20438;-62
2021/01/10 08:51:51;;;;;;;96.05;37.95;;;;;;;0.01;84.80;101137.38;5115706;28;20035;-63
2021/01/10 08:54:23;;;;;;;104.20;40.63;;;;;;;-0.02;85.13;101143.50;5114056;28;20292;-64
2021/01/10 08:56:54;;;;;;;87.47;33.65;;;;;;;0.01;84.68;101142.91;5115775;28;20335;-65
2021/01/10 08:59:19;;;;;;;76.53;30.15;;;;;;;-0.06;84.41;101145.28;5114282;28;20023;-65
2021/01/10 09:01:46;;;;;;;87.60;33.97;;;;;;;-0.08;85.18;101153.06;5107607;28;20024;-64
2021/01/10 09:04:13;;;;;;;89.50;32.58;;;;;;;-0.11;85.13;101150.94;5112578;28;20112;-66
2021/01/10 09:06:56;;;;;;;88.95;34.45;;;;;;;-0.15;85.12;101159.03;5099186;28;20107;-66
2021/01/10 09:09:36;;;;;;;101.80;36.92;;;;;;;-0.17;85.41;101160.47;5097678;28;20031;-66
2021/01/10 09:12:22;;;;;;;98.47;38.03;;;;;;;-0.13;86.30;101158.72;5105185;28;20028;-66
2021/01/10 09:14:54;;;;;;;121.60;49.75;;;;;;;-0.15;85.78;101159.03;5103880;28;20024;-63
2021/01/10 09:17:32;;;;;;;98.32;37.70;;;;;;;-0.13;86.56;101159.53;5105382;28;20023;-65
2021/01/10 09:20:02;;;;;;;94.38;36.47;;;;;;;-0.12;86.09;101163.13;5102001;28;20039;-66
2021/01/10 09:22:33;;;;;;;91.50;36.33;;;;;;;-0.04;86.20;101151.31;5099258;28;20061;-67
2021/01/10 09:25:08;;;;;;;104.75;35.67;;;;;;;-0.05;86.09;101157.97;5100834;28;20319;-67
2021/01/10 09:27:33;;;;;;;86.18;32.83;;;;;;;-0.06;85.98;101148.03;5099990;28;20067;-66
2021/01/10 09:30:04;;;;;;;96.30;36.08;;;;;;;-0.06;86.02;101135.03;5098467;28;20068;-67
2021/01/10 09:32:30;;;;;;;104.15;36.70;;;;;;;-0.04;86.01;101134.72;5101229;28;20057;-66
2021/01/10 09:34:57;;;;;;;132.80;52.08;;;;;;;-0.05;86.23;101133.91;5099711;28;20048;-66
2021/01/10 09:37:30;;;;;;;104.03;39.17;;;;;;;-0.05;86.28;101130.31;5099445;28;20012;-67
2021/01/10 09:40:09;;;;;;;115.30;41.03;;;;;;;0.02;85.82;101118.84;5100061;28;20316;-68
2021/01/10 09:42:49;;;;;;;108.35;40.45;;;;;;;0.03;85.45;101115.78;5106316;28;20451;-65
2021/01/10 09:45:16;;;;;;;116.82;41.00;;;;;;;-0.02;85.43;101102.06;5103754;28;20028;-65
2021/01/10 09:47:42;;;;;;;107.13;38.35;;;;;;;-0.04;85.32;101104.31;5107252;28;20024;-66
2021/01/10 09:50:17;;;;;;;97.20;32.92;;;;;;;-0.08;85.38;101100.56;5117341;28;20031;-72
2021/01/10 09:52:53;;;;;;;99.40;33.67;;;;;;;-0.13;85.36;101106.22;5105411;28;20081;-64
2021/01/10 09:55:27;;;;;;;97.28;32.92;;;;;;;-0.06;85.68;101103.81;5098336;28;20047;-63
2021/01/10 09:57:55;;;;;;;80.60;29.17;;;;;;;0.05;84.01;101104.41;5102060;28;20028;-63
2021/01/10 10:00:21;;;;;;;80.78;27.92;;;;;;;-0.01;83.73;101087.91;5101842;28;20122;-64
2021/01/10 10:02:47;;;;;;;84.15;31.70;;;;;;;-0.10;83.68;101086.25;5101200;28;20023;-63
2021/01/10 10:05:25;;;;;;;104.72;39.25;;;;;;;-0.16;84.49;101080.03;5111839;28;20524;-63
2021/01/10 10:07:59;;;;;;;88.40;31.42;;;;;;;-0.20;84.38;101083.72;5105655;28;20411;-63
2021/01/10 10:10:28;;;;;;;79.90;28.00;;;;;;;-0.15;85.16;101075.31;5109320;28;20474;-63
2021/01/10 10:13:04;;;;;;;86.82;30.63;;;;;;;-0.12;84.75;101072.75;5105322;28;20035;-62
2021/01/10 10:15:39;;;;;;;77.93;30.13;;;;;;;-0.15;85.10;101076.13;5110624;28;20050;-63
2021/01/10 10:18:09;;;;;;;76.55;27.45;;;;;;;-0.12;84.53;101088.50;5105213;28;20020;-63
2021/01/10 10:20:34;;;;;;;74.13;26.50;;;;;;;-0.07;84.18;101091.13;5110952;28;20023;-63
2021/01/10 10:23:09;;;;;;;77.40;27.23;;;;;;;-0.07;84.38;101091.13;5104359;28;20020;-63
2021/01/10 10:25:36;;;;;;;77.68;30.13;;;;;;;-0.10;84.02;101097.28;5104370;28;20029;-63
2021/01/10 10:28:02;;;;;;;83.65;31.08;;;;;;;-0.19;84.20;101093.66;5118108;28;20376;-64
2021/01/10 10:30:28;;;;;;;84.90;35.20;;;;;;;-0.24;84.40;101089.06;5117704;28;20110;-62
2021/01/10 10:32:54;;;;;;;67.97;29.00;;;;;;;-0.21;84.33;101082.09;5109431;28;20103;-63
2021/01/10 10:35:20;;;;;;;65.97;27.15;;;;;;;-0.22;84.19;101074.94;5117765;28;20051;-63
2021/01/10 10:37:47;;;;;;;69.47;28.70;;;;;;;-0.22;83.97;101074.94;5106287;28;20443;-62
2021/01/10 10:40:13;;;;;;;80.20;30.95;;;;;;;-0.25;84.18;101084.69;5097691;28;20020;-62
2021/01/10 10:42:39;;;;;;;79.90;30.30;;;;;;;-0.26;83.86;101091.34;5105809;28;20027;-67
2021/01/10 10:45:05;;;;;;;81.03;29.83;;;;;;;-0.17;83.56;101094.16;5107773;28;20076;-64
2021/01/10 10:47:30;;;;;;;95.93;34.55;;;;;;;-0.24;83.62;101086.31;5113931;28;20076;-62
2021/01/10 10:49:56;;;;;;;72.65;27.50;;;;;;;-0.28;84.53;101084.47;5115857;28;20028;-67
2021/01/10 10:52:21;;;;;;;78.03;28.30;;;;;;;-0.27;84.76;101075.91;5104826;28;20027;-65
2021/01/10 10:54:46;;;;;;;79.85;29.40;;;;;;;-0.22;84.21;101069.41;5112671;28;20077;-66
2021/01/10 10:57:12;;;;;;;78.95;28.90;;;;;;;-0.20;84.24;101067.16;5098387;28;20016;-64
2021/01/10 10:59:38;;;;;;;86.28;30.27;;;;;;;-0.21;84.39;101060.00;5102944;28;20027;-62
2021/01/10 11:02:04;;;;;;;81.22;30.48;;;;;;;-0.25;84.02;101042.44;5106153;28;20118;-65
2021/01/10 11:04:29;;;;;;;90.10;29.90;;;;;;;-0.24;84.08;101038.53;5115034;28;20378;-63
2021/01/10 11:06:54;;;;;;;89.07;32.83;;;;;;;-0.22;85.02;101037.09;5116481;27;20394;-63
2021/01/10 11:09:20;;;;;;;86.50;33.75;;;;;;;-0.24;84.88;101028.28;5116146;28;20027;-64
2021/01/10 11:11:50;;;;;;;82.57;32.50;;;;;;;-0.27;84.83;101028.09;5115174;28;20080;-63
2021/01/10 11:14:17;;;;;;;92.65;30.90;;;;;;;-0.23;84.90;101038.22;5111760;28;20028;-63
2021/01/10 11:16:46;;;;;;;84.63;30.33;;;;;;;-0.21;84.34;101026.84;5114928;28;20047;-61